sensor_id;sensor_type;location;lat;lon;timestamp;P1;durP1;ratioP1;P2;durP2;ratioP2
16969;SDS011;8601;48.718;8.992;2023-03-20T00:00:43;6.00;;;5.50;;
16969;SDS011;8601;48.718;8.992;2023-03-20T00:03:12;5.77;;;5.27;;
16969;SDS011;8601;48.718;8.992;2023-03-20T00:05:41;5.10;;;4.70;;
16969;SDS011;8601;48.718;8.992;2023-03-20T00:08:08;5.00;;;4.60;;
16969;SDS011;8601;48.718;8.992;2023-03-20T00:10:37;5.33;;;4.80;;
16969;SDS011;8601;48.718;8.992;2023-03-20T00:13:06;5.47;;;4.97;;
16969;SDS011;8601;48.718;8.992;2023-03-20T00:15:38;5.47;;;4.97;;
16969;SDS011;8601;48.718;8.992;2023-03-20T00:18:10;5.77;;;5.27;;
16969;SDS011;8601;48.718;8.992;2023-03-20T00:20:42;4.77;;;4.37;;
16969;SDS011;8601;48.718;8.992;2023-03-20T00:23:09;5.00;;;4.60;;
16969;SDS011;8601;48.718;8.992;2023-03-20T00:25:36;4.83;;;4.40;;
16969;SDS011;8601;48.718;8.992;2023-03-20T00:28:09;5.27;;;4.77;;
16969;SDS011;8601;48.718;8.992;2023-03-20T00:30:56;5.13;;;4.63;;
16969;SDS011;8601;48.718;8.992;2023-03-20T00:33:24;5.07;;;4.60;;
16969;SDS011;8601;48.718;8.992;2023-03-20T00:35:53;4.27;;;3.97;;
16969;SDS011;8601;48.718;8.992;2023-03-20T00:38:20;5.73;;;3.80;;
16969;SDS011;8601;48.718;8.992;2023-03-20T00:40:47;3.23;;;2.93;;
16969;SDS011;8601;48.718;8.992;2023-03-20T00:43:15;4.53;;;3.07;;
16969;SDS011;8601;48.718;8.992;2023-03-20T00:45:42;3.23;;;3.00;;
16969;SDS011;8601;48.718;8.992;2023-03-20T00:48:12;3.50;;;3.20;;
16969;SDS011;8601;48.718;8.992;2023-03-20T00:50:40;2.90;;;2.53;;
16969;SDS011;8601;48.718;8.992;2023-03-20T00:53:09;3.30;;;2.70;;
16969;SDS011;8601;48.718;8.992;2023-03-20T00:55:37;2.70;;;2.50;;
16969;SDS011;8601;48.718;8.992;2023-03-20T00:58:05;3.07;;;2.87;;
16969;SDS011;8601;48.718;8.992;2023-03-20T01:00:36;2.47;;;2.27;;
16969;SDS011;8601;48.718;8.992;2023-03-20T01:03:13;2.60;;;2.40;;
16969;SDS011;8601;48.718;8.992;2023-03-20T01:05:42;2.60;;;2.47;;
16969;SDS011;8601;48.718;8.992;2023-03-20T01:08:13;2.60;;;2.30;;
16969;SDS011;8601;48.718;8.992;2023-03-20T01:10:42;2.70;;;2.50;;
16969;SDS011;8601;48.718;8.992;2023-03-20T01:13:12;2.70;;;2.50;;
16969;SDS011;8601;48.718;8.992;2023-03-20T01:15:44;2.37;;;2.17;;
16969;SDS011;8601;48.718;8.992;2023-03-20T01:18:12;2.20;;;2.00;;
16969;SDS011;8601;48.718;8.992;2023-03-20T01:20:39;2.30;;;2.10;;
16969;SDS011;8601;48.718;8.992;2023-03-20T01:23:07;2.00;;;1.90;;
16969;SDS011;8601;48.718;8.992;2023-03-20T01:25:36;1.77;;;1.60;;
16969;SDS011;8601;48.718;8.992;2023-03-20T01:28:10;1.60;;;1.50;;
16969;SDS011;8601;48.718;8.992;2023-03-20T01:30:40;1.40;;;1.30;;
16969;SDS011;8601;48.718;8.992;2023-03-20T01:33:11;1.70;;;1.60;;
16969;SDS011;8601;48.718;8.992;2023-03-20T01:35:40;2.00;;;1.73;;
16969;SDS011;8601;48.718;8.992;2023-03-20T01:38:10;1.50;;;1.40;;
16969;SDS011;8601;48.718;8.992;2023-03-20T01:40:42;1.57;;;1.47;;
16969;SDS011;8601;48.718;8.992;2023-03-20T01:43:15;1.40;;;1.30;;
16969;SDS011;8601;48.718;8.992;2023-03-20T01:45:46;1.70;;;1.60;;
16969;SDS011;8601;48.718;8.992;2023-03-20T01:48:19;1.73;;;1.50;;
16969;SDS011;8601;48.718;8.992;2023-03-20T01:50:48;1.60;;;1.50;;
16969;SDS011;8601;48.718;8.992;2023-03-20T01:53:16;1.60;;;1.50;;
16969;SDS011;8601;48.718;8.992;2023-03-20T01:55:48;1.60;;;1.50;;
16969;SDS011;8601;48.718;8.992;2023-03-20T01:58:20;1.77;;;1.67;;
16969;SDS011;8601;48.718;8.992;2023-03-20T02:00:51;1.73;;;1.63;;
16969;SDS011;8601;48.718;8.992;2023-03-20T02:03:18;1.60;;;1.50;;
16969;SDS011;8601;48.718;8.992;2023-03-20T02:05:46;1.77;;;1.43;;
16969;SDS011;8601;48.718;8.992;2023-03-20T02:08:16;1.70;;;1.60;;
16969;SDS011;8601;48.718;8.992;2023-03-20T02:10:49;1.87;;;1.63;;
16969;SDS011;8601;48.718;8.992;2023-03-20T02:13:16;1.73;;;1.53;;
16969;SDS011;8601;48.718;8.992;2023-03-20T02:15:54;2.43;;;1.50;;
16969;SDS011;8601;48.718;8.992;2023-03-20T02:18:24;1.90;;;1.80;;
16969;SDS011;8601;48.718;8.992;2023-03-20T02:21:05;1.63;;;1.53;;
16969;SDS011;8601;48.718;8.992;2023-03-20T02:23:56;1.97;;;1.80;;
16969;SDS011;8601;48.718;8.992;2023-03-20T02:27:07;2.80;;;1.67;;
16969;SDS011;8601;48.718;8.992;2023-03-20T02:29:46;1.77;;;1.67;;
16969;SDS011;8601;48.718;8.992;2023-03-20T02:36:06;1.27;;;1.27;;
16969;SDS011;8601;48.718;8.992;2023-03-20T02:41:42;1.30;;;1.30;;
16969;SDS011;8601;48.718;8.992;2023-03-20T02:44:18;1.43;;;1.30;;
16969;SDS011;8601;48.718;8.992;2023-03-20T02:46:51;1.50;;;1.40;;
16969;SDS011;8601;48.718;8.992;2023-03-20T02:49:33;1.50;;;1.37;;
16969;SDS011;8601;48.718;8.992;2023-03-20T02:52:15;1.73;;;1.63;;
16969;SDS011;8601;48.718;8.992;2023-03-20T02:54:48;1.30;;;1.30;;
16969;SDS011;8601;48.718;8.992;2023-03-20T02:57:20;1.33;;;1.30;;
16969;SDS011;8601;48.718;8.992;2023-03-20T02:59:54;1.43;;;1.37;;
16969;SDS011;8601;48.718;8.992;2023-03-20T03:02:26;1.50;;;1.40;;
16969;SDS011;8601;48.718;8.992;2023-03-20T03:05:00;1.83;;;1.20;;
16969;SDS011;8601;48.718;8.992;2023-03-20T03:07:31;1.40;;;1.30;;
16969;SDS011;8601;48.718;8.992;2023-03-20T03:10:02;1.40;;;1.30;;
16969;SDS011;8601;48.718;8.992;2023-03-20T03:12:34;2.80;;;1.30;;
16969;SDS011;8601;48.718;8.992;2023-03-20T03:15:04;1.30;;;1.30;;
16969;SDS011;8601;48.718;8.992;2023-03-20T03:17:39;1.97;;;1.50;;
16969;SDS011;8601;48.718;8.992;2023-03-20T03:20:13;1.70;;;1.60;;
16969;SDS011;8601;48.718;8.992;2023-03-20T03:22:45;1.70;;;1.30;;
16969;SDS011;8601;48.718;8.992;2023-03-20T03:25:16;1.77;;;1.40;;
16969;SDS011;8601;48.718;8.992;2023-03-20T03:27:46;1.37;;;1.23;;
16969;SDS011;8601;48.718;8.992;2023-03-20T03:30:18;1.10;;;1.10;;
16969;SDS011;8601;48.718;8.992;2023-03-20T03:32:50;1.40;;;1.30;;
16969;SDS011;8601;48.718;8.992;2023-03-20T03:35:28;1.27;;;1.27;;
16969;SDS011;8601;48.718;8.992;2023-03-20T03:37:56;2.80;;;1.20;;
16969;SDS011;8601;48.718;8.992;2023-03-20T03:40:29;1.13;;;1.13;;
16969;SDS011;8601;48.718;8.992;2023-03-20T03:43:02;1.30;;;1.20;;
16969;SDS011;8601;48.718;8.992;2023-03-20T03:45:34;1.27;;;1.20;;
16969;SDS011;8601;48.718;8.992;2023-03-20T03:48:06;1.47;;;1.37;;
16969;SDS011;8601;48.718;8.992;2023-03-20T03:50:39;1.20;;;1.20;;
16969;SDS011;8601;48.718;8.992;2023-03-20T03:53:12;1.37;;;1.30;;
16969;SDS011;8601;48.718;8.992;2023-03-20T03:55:44;1.37;;;1.30;;
16969;SDS011;8601;48.718;8.992;2023-03-20T03:58:16;2.07;;;1.30;;
16969;SDS011;8601;48.718;8.992;2023-03-20T04:00:47;1.57;;;1.47;;
16969;SDS011;8601;48.718;8.992;2023-03-20T04:03:16;1.47;;;1.33;;
16969;SDS011;8601;48.718;8.992;2023-03-20T04:05:45;1.53;;;1.40;;
16969;SDS011;8601;48.718;8.992;2023-03-20T04:08:13;1.47;;;1.43;;
16969;SDS011;8601;48.718;8.992;2023-03-20T04:10:40;1.50;;;1.40;;
16969;SDS011;8601;48.718;8.992;2023-03-20T04:13:08;1.57;;;1.10;;
16969;SDS011;8601;48.718;8.992;2023-03-20T04:15:35;1.63;;;1.53;;
16969;SDS011;8601;48.718;8.992;2023-03-20T04:18:03;1.40;;;1.20;;
16969;SDS011;8601;48.718;8.992;2023-03-20T04:20:30;1.53;;;1.40;;
16969;SDS011;8601;48.718;8.992;2023-03-20T04:22:57;1.40;;;1.30;;
16969;SDS011;8601;48.718;8.992;2023-03-20T04:25:25;1.53;;;1.43;;
16969;SDS011;8601;48.718;8.992;2023-03-20T04:27:52;1.50;;;1.40;;
16969;SDS011;8601;48.718;8.992;2023-03-20T04:30:21;1.60;;;1.47;;
16969;SDS011;8601;48.718;8.992;2023-03-20T04:32:48;1.47;;;1.37;;
16969;SDS011;8601;48.718;8.992;2023-03-20T04:35:15;2.10;;;1.63;;
16969;SDS011;8601;48.718;8.992;2023-03-20T04:37:42;1.50;;;1.40;;
16969;SDS011;8601;48.718;8.992;2023-03-20T04:40:09;2.23;;;1.60;;
16969;SDS011;8601;48.718;8.992;2023-03-20T04:42:37;1.73;;;1.63;;
16969;SDS011;8601;48.718;8.992;2023-03-20T04:45:04;1.43;;;1.33;;
16969;SDS011;8601;48.718;8.992;2023-03-20T04:47:33;1.57;;;1.47;;
16969;SDS011;8601;48.718;8.992;2023-03-20T04:50:00;1.60;;;1.50;;
16969;SDS011;8601;48.718;8.992;2023-03-20T04:52:27;2.20;;;1.70;;
16969;SDS011;8601;48.718;8.992;2023-03-20T04:54:54;1.93;;;1.70;;
16969;SDS011;8601;48.718;8.992;2023-03-20T04:57:21;1.90;;;1.80;;
16969;SDS011;8601;48.718;8.992;2023-03-20T04:59:48;1.90;;;1.67;;
16969;SDS011;8601;48.718;8.992;2023-03-20T05:02:15;1.77;;;1.50;;
16969;SDS011;8601;48.718;8.992;2023-03-20T05:04:43;3.60;;;2.00;;
16969;SDS011;8601;48.718;8.992;2023-03-20T05:07:10;1.50;;;1.40;;
16969;SDS011;8601;48.718;8.992;2023-03-20T05:09:37;2.33;;;1.77;;
16969;SDS011;8601;48.718;8.992;2023-03-20T05:12:04;3.73;;;1.83;;
16969;SDS011;8601;48.718;8.992;2023-03-20T05:14:31;2.07;;;1.87;;
16969;SDS011;8601;48.718;8.992;2023-03-20T05:16:58;1.70;;;1.60;;
16969;SDS011;8601;48.718;8.992;2023-03-20T05:19:25;2.33;;;1.90;;
16969;SDS011;8601;48.718;8.992;2023-03-20T05:21:53;3.83;;;1.87;;
16969;SDS011;8601;48.718;8.992;2023-03-20T05:24:21;2.10;;;1.90;;
16969;SDS011;8601;48.718;8.992;2023-03-20T05:26:47;2.77;;;1.67;;
16969;SDS011;8601;48.718;8.992;2023-03-20T05:29:15;1.77;;;1.67;;
16969;SDS011;8601;48.718;8.992;2023-03-20T05:31:42;2.03;;;1.90;;
16969;SDS011;8601;48.718;8.992;2023-03-20T05:34:08;3.10;;;1.90;;
16969;SDS011;8601;48.718;8.992;2023-03-20T05:36:36;2.13;;;1.90;;
16969;SDS011;8601;48.718;8.992;2023-03-20T05:39:04;2.03;;;1.90;;
16969;SDS011;8601;48.718;8.992;2023-03-20T05:41:31;2.23;;;1.97;;
16969;SDS011;8601;48.718;8.992;2023-03-20T05:43:58;2.33;;;2.13;;
16969;SDS011;8601;48.718;8.992;2023-03-20T05:46:25;2.60;;;2.40;;
16969;SDS011;8601;48.718;8.992;2023-03-20T05:48:52;2.70;;;2.50;;
16969;SDS011;8601;48.718;8.992;2023-03-20T05:51:19;2.60;;;2.13;;
16969;SDS011;8601;48.718;8.992;2023-03-20T05:53:46;2.50;;;2.30;;
16969;SDS011;8601;48.718;8.992;2023-03-20T05:56:15;2.10;;;1.90;;
16969;SDS011;8601;48.718;8.992;2023-03-20T05:58:43;2.20;;;2.10;;
16969;SDS011;8601;48.718;8.992;2023-03-20T06:01:10;2.97;;;2.27;;
16969;SDS011;8601;48.718;8.992;2023-03-20T06:03:40;2.57;;;2.03;;
16969;SDS011;8601;48.718;8.992;2023-03-20T06:06:07;2.00;;;1.90;;
16969;SDS011;8601;48.718;8.992;2023-03-20T06:08:34;2.10;;;1.90;;
16969;SDS011;8601;48.718;8.992;2023-03-20T06:11:01;2.10;;;2.00;;
16969;SDS011;8601;48.718;8.992;2023-03-20T06:13:29;2.73;;;1.93;;
16969;SDS011;8601;48.718;8.992;2023-03-20T06:15:56;2.07;;;1.90;;
16969;SDS011;8601;48.718;8.992;2023-03-20T06:18:23;2.17;;;2.00;;
16969;SDS011;8601;48.718;8.992;2023-03-20T06:20:51;2.80;;;1.80;;
16969;SDS011;8601;48.718;8.992;2023-03-20T06:23:18;2.13;;;1.90;;
16969;SDS011;8601;48.718;8.992;2023-03-20T06:25:45;1.43;;;1.33;;
16969;SDS011;8601;48.718;8.992;2023-03-20T06:28:13;3.13;;;1.90;;
16969;SDS011;8601;48.718;8.992;2023-03-20T06:30:42;3.00;;;2.27;;
16969;SDS011;8601;48.718;8.992;2023-03-20T06:33:09;2.20;;;1.80;;
16969;SDS011;8601;48.718;8.992;2023-03-20T06:35:36;2.00;;;1.90;;
16969;SDS011;8601;48.718;8.992;2023-03-20T06:38:03;3.47;;;2.70;;
16969;SDS011;8601;48.718;8.992;2023-03-20T06:40:30;4.70;;;3.80;;
16969;SDS011;8601;48.718;8.992;2023-03-20T06:42:57;3.47;;;3.17;;
16969;SDS011;8601;48.718;8.992;2023-03-20T06:45:24;3.30;;;2.90;;
16969;SDS011;8601;48.718;8.992;2023-03-20T06:47:52;2.70;;;2.40;;
16969;SDS011;8601;48.718;8.992;2023-03-20T06:50:19;2.40;;;2.27;;
16969;SDS011;8601;48.718;8.992;2023-03-20T06:52:45;2.50;;;2.00;;
16969;SDS011;8601;48.718;8.992;2023-03-20T06:55:12;2.53;;;2.30;;
16969;SDS011;8601;48.718;8.992;2023-03-20T06:57:40;2.60;;;2.40;;
16969;SDS011;8601;48.718;8.992;2023-03-20T07:00:07;4.20;;;2.80;;
16969;SDS011;8601;48.718;8.992;2023-03-20T07:02:35;2.87;;;2.57;;
16969;SDS011;8601;48.718;8.992;2023-03-20T07:05:03;2.80;;;2.60;;
16969;SDS011;8601;48.718;8.992;2023-03-20T07:07:32;3.20;;;2.87;;
16969;SDS011;8601;48.718;8.992;2023-03-20T07:09:58;3.33;;;3.03;;
16969;SDS011;8601;48.718;8.992;2023-03-20T07:12:26;2.87;;;2.43;;
16969;SDS011;8601;48.718;8.992;2023-03-20T07:14:53;2.87;;;2.47;;
16969;SDS011;8601;48.718;8.992;2023-03-20T07:17:21;2.30;;;2.10;;
16969;SDS011;8601;48.718;8.992;2023-03-20T07:19:47;2.20;;;2.00;;
16969;SDS011;8601;48.718;8.992;2023-03-20T07:22:18;2.10;;;2.00;;
16969;SDS011;8601;48.718;8.992;2023-03-20T07:24:52;2.50;;;1.87;;
16969;SDS011;8601;48.718;8.992;2023-03-20T07:27:21;2.20;;;1.80;;
16969;SDS011;8601;48.718;8.992;2023-03-20T07:29:47;2.20;;;1.97;;
16969;SDS011;8601;48.718;8.992;2023-03-20T07:32:14;2.30;;;2.10;;
16969;SDS011;8601;48.718;8.992;2023-03-20T07:34:41;2.33;;;1.83;;
16969;SDS011;8601;48.718;8.992;2023-03-20T07:37:08;2.07;;;1.87;;
16969;SDS011;8601;48.718;8.992;2023-03-20T07:39:37;2.30;;;2.10;;
16969;SDS011;8601;48.718;8.992;2023-03-20T07:42:04;2.07;;;1.87;;
16969;SDS011;8601;48.718;8.992;2023-03-20T07:44:31;1.90;;;1.80;;
16969;SDS011;8601;48.718;8.992;2023-03-20T07:46:58;2.20;;;2.00;;
16969;SDS011;8601;48.718;8.992;2023-03-20T07:49:25;1.80;;;1.70;;
16969;SDS011;8601;48.718;8.992;2023-03-20T07:51:52;1.70;;;1.60;;
16969;SDS011;8601;48.718;8.992;2023-03-20T07:54:20;3.00;;;1.80;;
16969;SDS011;8601;48.718;8.992;2023-03-20T07:56:49;1.90;;;1.80;;
16969;SDS011;8601;48.718;8.992;2023-03-20T07:59:17;2.00;;;1.90;;
16969;SDS011;8601;48.718;8.992;2023-03-20T08:01:44;1.70;;;1.60;;
16969;SDS011;8601;48.718;8.992;2023-03-20T08:04:11;1.80;;;1.70;;
16969;SDS011;8601;48.718;8.992;2023-03-20T08:06:37;2.23;;;1.90;;
16969;SDS011;8601;48.718;8.992;2023-03-20T08:09:05;2.07;;;1.80;;
16969;SDS011;8601;48.718;8.992;2023-03-20T08:11:32;9.23;;;6.80;;
16969;SDS011;8601;48.718;8.992;2023-03-20T08:14:01;1.80;;;1.70;;
16969;SDS011;8601;48.718;8.992;2023-03-20T08:16:28;1.90;;;1.80;;
16969;SDS011;8601;48.718;8.992;2023-03-20T08:18:55;2.33;;;1.93;;
16969;SDS011;8601;48.718;8.992;2023-03-20T08:21:25;2.10;;;1.90;;
16969;SDS011;8601;48.718;8.992;2023-03-20T08:23:52;3.73;;;1.90;;
16969;SDS011;8601;48.718;8.992;2023-03-20T08:26:20;2.50;;;2.30;;
16969;SDS011;8601;48.718;8.992;2023-03-20T08:28:47;1.97;;;1.80;;
16969;SDS011;8601;48.718;8.992;2023-03-20T08:31:15;2.00;;;1.90;;
16969;SDS011;8601;48.718;8.992;2023-03-20T08:33:42;2.10;;;1.90;;
16969;SDS011;8601;48.718;8.992;2023-03-20T08:36:10;1.90;;;1.73;;
16969;SDS011;8601;48.718;8.992;2023-03-20T08:38:39;1.80;;;1.70;;
16969;SDS011;8601;48.718;8.992;2023-03-20T08:41:06;2.77;;;2.20;;
16969;SDS011;8601;48.718;8.992;2023-03-20T08:43:33;2.13;;;1.90;;
16969;SDS011;8601;48.718;8.992;2023-03-20T08:46:00;2.27;;;2.07;;
16969;SDS011;8601;48.718;8.992;2023-03-20T08:48:28;2.30;;;2.10;;
16969;SDS011;8601;48.718;8.992;2023-03-20T08:50:55;2.80;;;2.60;;
16969;SDS011;8601;48.718;8.992;2023-03-20T08:53:22;3.47;;;3.17;;
16969;SDS011;8601;48.718;8.992;2023-03-20T08:55:49;3.57;;;2.20;;
16969;SDS011;8601;48.718;8.992;2023-03-20T08:58:16;2.50;;;2.30;;
16969;SDS011;8601;48.718;8.992;2023-03-20T09:00:44;3.20;;;2.90;;
16969;SDS011;8601;48.718;8.992;2023-03-20T09:03:11;3.20;;;2.90;;
16969;SDS011;8601;48.718;8.992;2023-03-20T09:05:42;4.17;;;3.77;;
16969;SDS011;8601;48.718;8.992;2023-03-20T09:08:09;2.53;;;2.30;;
16969;SDS011;8601;48.718;8.992;2023-03-20T09:10:36;2.73;;;2.53;;
16969;SDS011;8601;48.718;8.992;2023-03-20T09:13:04;2.70;;;2.50;;
16969;SDS011;8601;48.718;8.992;2023-03-20T09:15:31;2.50;;;2.30;;
16969;SDS011;8601;48.718;8.992;2023-03-20T09:17:59;2.87;;;2.60;;
16969;SDS011;8601;48.718;8.992;2023-03-20T09:20:26;2.97;;;2.27;;
16969;SDS011;8601;48.718;8.992;2023-03-20T09:22:54;2.60;;;2.40;;
16969;SDS011;8601;48.718;8.992;2023-03-20T09:25:21;3.73;;;2.63;;
16969;SDS011;8601;48.718;8.992;2023-03-20T09:27:50;3.13;;;2.50;;
16969;SDS011;8601;48.718;8.992;2023-03-20T09:30:19;3.03;;;2.40;;
16969;SDS011;8601;48.718;8.992;2023-03-20T09:32:46;3.00;;;2.70;;
16969;SDS011;8601;48.718;8.992;2023-03-20T09:35:13;3.00;;;2.70;;
16969;SDS011;8601;48.718;8.992;2023-03-20T09:37:40;2.87;;;2.57;;
16969;SDS011;8601;48.718;8.992;2023-03-20T09:40:11;3.23;;;2.93;;
16969;SDS011;8601;48.718;8.992;2023-03-20T09:42:50;3.00;;;2.63;;
16969;SDS011;8601;48.718;8.992;2023-03-20T09:45:26;2.83;;;2.57;;
16969;SDS011;8601;48.718;8.992;2023-03-20T09:48:06;3.07;;;2.87;;
16969;SDS011;8601;48.718;8.992;2023-03-20T09:50:41;3.30;;;2.87;;
16969;SDS011;8601;48.718;8.992;2023-03-20T09:53:12;2.37;;;2.17;;
16969;SDS011;8601;48.718;8.992;2023-03-20T09:55:46;4.13;;;3.40;;
16969;SDS011;8601;48.718;8.992;2023-03-20T09:58:16;2.30;;;2.10;;
16969;SDS011;8601;48.718;8.992;2023-03-20T10:00:46;2.07;;;1.97;;
16969;SDS011;8601;48.718;8.992;2023-03-20T10:03:16;2.60;;;2.20;;
16969;SDS011;8601;48.718;8.992;2023-03-20T10:05:46;2.40;;;2.20;;
16969;SDS011;8601;48.718;8.992;2023-03-20T10:08:18;2.60;;;2.40;;
16969;SDS011;8601;48.718;8.992;2023-03-20T10:10:51;2.40;;;2.10;;
16969;SDS011;8601;48.718;8.992;2023-03-20T10:13:32;2.23;;;2.03;;
16969;SDS011;8601;48.718;8.992;2023-03-20T10:16:12;3.10;;;2.50;;
16969;SDS011;8601;48.718;8.992;2023-03-20T10:18:50;4.40;;;2.47;;
16969;SDS011;8601;48.718;8.992;2023-03-20T10:21:26;5.20;;;4.30;;
16969;SDS011;8601;48.718;8.992;2023-03-20T10:24:02;2.73;;;2.20;;
16969;SDS011;8601;48.718;8.992;2023-03-20T10:26:33;2.70;;;2.13;;
16969;SDS011;8601;48.718;8.992;2023-03-20T10:29:04;2.73;;;1.90;;
16969;SDS011;8601;48.718;8.992;2023-03-20T10:31:42;2.60;;;2.13;;
16969;SDS011;8601;48.718;8.992;2023-03-20T10:34:19;2.03;;;1.70;;
16969;SDS011;8601;48.718;8.992;2023-03-20T10:37:10;2.43;;;2.17;;
16969;SDS011;8601;48.718;8.992;2023-03-20T10:39:48;2.30;;;2.07;;
16969;SDS011;8601;48.718;8.992;2023-03-20T10:42:25;2.20;;;1.87;;
16969;SDS011;8601;48.718;8.992;2023-03-20T10:44:56;5.13;;;3.70;;
16969;SDS011;8601;48.718;8.992;2023-03-20T10:47:27;2.30;;;2.07;;
16969;SDS011;8601;48.718;8.992;2023-03-20T10:50:00;2.57;;;1.70;;
16969;SDS011;8601;48.718;8.992;2023-03-20T10:52:31;2.00;;;1.80;;
16969;SDS011;8601;48.718;8.992;2023-03-20T10:55:02;2.90;;;1.87;;
16969;SDS011;8601;48.718;8.992;2023-03-20T10:57:34;3.13;;;1.80;;
16969;SDS011;8601;48.718;8.992;2023-03-20T11:00:06;2.20;;;1.73;;
16969;SDS011;8601;48.718;8.992;2023-03-20T11:02:39;2.30;;;2.10;;
16969;SDS011;8601;48.718;8.992;2023-03-20T11:05:09;3.10;;;2.13;;
16969;SDS011;8601;48.718;8.992;2023-03-20T11:07:47;1.90;;;1.80;;
16969;SDS011;8601;48.718;8.992;2023-03-20T11:10:18;2.20;;;1.77;;
16969;SDS011;8601;48.718;8.992;2023-03-20T11:12:47;2.00;;;1.80;;
16969;SDS011;8601;48.718;8.992;2023-03-20T11:15:21;3.00;;;1.90;;
16969;SDS011;8601;48.718;8.992;2023-03-20T11:17:51;2.40;;;2.20;;
16969;SDS011;8601;48.718;8.992;2023-03-20T11:20:18;3.30;;;2.10;;
16969;SDS011;8601;48.718;8.992;2023-03-20T11:22:46;2.53;;;2.20;;
16969;SDS011;8601;48.718;8.992;2023-03-20T11:25:23;2.30;;;2.00;;
16969;SDS011;8601;48.718;8.992;2023-03-20T11:27:56;2.53;;;2.00;;
16969;SDS011;8601;48.718;8.992;2023-03-20T11:30:43;3.50;;;2.93;;
16969;SDS011;8601;48.718;8.992;2023-03-20T11:33:10;2.40;;;2.00;;
16969;SDS011;8601;48.718;8.992;2023-03-20T11:35:38;2.87;;;2.00;;
16969;SDS011;8601;48.718;8.992;2023-03-20T11:38:12;2.57;;;1.90;;
16969;SDS011;8601;48.718;8.992;2023-03-20T11:40:40;2.20;;;2.00;;
16969;SDS011;8601;48.718;8.992;2023-03-20T11:43:10;2.30;;;2.10;;
16969;SDS011;8601;48.718;8.992;2023-03-20T11:45:40;3.17;;;2.50;;
16969;SDS011;8601;48.718;8.992;2023-03-20T11:48:13;2.43;;;2.17;;
16969;SDS011;8601;48.718;8.992;2023-03-20T11:50:45;3.00;;;2.27;;
16969;SDS011;8601;48.718;8.992;2023-03-20T11:53:20;2.50;;;2.30;;
16969;SDS011;8601;48.718;8.992;2023-03-20T11:56:01;3.47;;;3.17;;
16969;SDS011;8601;48.718;8.992;2023-03-20T11:58:33;2.63;;;2.43;;
16969;SDS011;8601;48.718;8.992;2023-03-20T12:01:03;2.93;;;2.73;;
16969;SDS011;8601;48.718;8.992;2023-03-20T12:03:41;2.70;;;2.50;;
16969;SDS011;8601;48.718;8.992;2023-03-20T12:06:14;2.63;;;2.43;;
16969;SDS011;8601;48.718;8.992;2023-03-20T12:08:45;2.83;;;2.50;;
16969;SDS011;8601;48.718;8.992;2023-03-20T12:11:33;2.63;;;2.43;;
16969;SDS011;8601;48.718;8.992;2023-03-20T12:14:16;4.03;;;3.10;;
16969;SDS011;8601;48.718;8.992;2023-03-20T12:16:49;6.10;;;2.40;;
16969;SDS011;8601;48.718;8.992;2023-03-20T12:19:21;3.50;;;3.10;;
16969;SDS011;8601;48.718;8.992;2023-03-20T12:21:56;2.93;;;2.63;;
16969;SDS011;8601;48.718;8.992;2023-03-20T12:24:30;8.10;;;2.70;;
16969;SDS011;8601;48.718;8.992;2023-03-20T12:27:06;3.63;;;2.97;;
16969;SDS011;8601;48.718;8.992;2023-03-20T12:29:45;3.60;;;2.70;;
16969;SDS011;8601;48.718;8.992;2023-03-20T12:32:15;3.10;;;2.80;;
16969;SDS011;8601;48.718;8.992;2023-03-20T12:34:46;2.83;;;2.33;;
16969;SDS011;8601;48.718;8.992;2023-03-20T12:37:17;4.37;;;2.70;;
16969;SDS011;8601;48.718;8.992;2023-03-20T12:39:47;3.60;;;2.70;;
16969;SDS011;8601;48.718;8.992;2023-03-20T12:42:19;4.07;;;2.70;;
16969;SDS011;8601;48.718;8.992;2023-03-20T12:44:58;2.33;;;2.13;;
16969;SDS011;8601;48.718;8.992;2023-03-20T12:47:36;3.00;;;2.37;;
16969;SDS011;8601;48.718;8.992;2023-03-20T12:50:15;3.20;;;2.90;;
16969;SDS011;8601;48.718;8.992;2023-03-20T12:52:50;6.40;;;4.70;;
16969;SDS011;8601;48.718;8.992;2023-03-20T12:55:30;2.87;;;2.27;;
16969;SDS011;8601;48.718;8.992;2023-03-20T12:58:10;2.60;;;2.17;;
16969;SDS011;8601;48.718;8.992;2023-03-20T13:00:46;2.57;;;2.03;;
16969;SDS011;8601;48.718;8.992;2023-03-20T13:03:28;2.43;;;2.03;;
16969;SDS011;8601;48.718;8.992;2023-03-20T13:06:14;1.77;;;1.67;;
16969;SDS011;8601;48.718;8.992;2023-03-20T13:09:01;2.57;;;2.23;;
16969;SDS011;8601;48.718;8.992;2023-03-20T13:11:44;2.00;;;1.80;;
16969;SDS011;8601;48.718;8.992;2023-03-20T13:14:18;2.10;;;1.90;;
16969;SDS011;8601;48.718;8.992;2023-03-20T13:16:52;1.93;;;1.67;;
16969;SDS011;8601;48.718;8.992;2023-03-20T13:19:26;1.50;;;1.40;;
16969;SDS011;8601;48.718;8.992;2023-03-20T13:21:57;2.00;;;1.70;;
16969;SDS011;8601;48.718;8.992;2023-03-20T13:24:34;2.47;;;1.77;;
16969;SDS011;8601;48.718;8.992;2023-03-20T13:29:54;1.73;;;1.60;;
16969;SDS011;8601;48.718;8.992;2023-03-20T13:32:30;11.27;;;3.23;;
16969;SDS011;8601;48.718;8.992;2023-03-20T13:35:13;3.73;;;1.70;;
16969;SDS011;8601;48.718;8.992;2023-03-20T13:37:50;2.83;;;1.40;;
16969;SDS011;8601;48.718;8.992;2023-03-20T13:40:22;1.97;;;1.60;;
16969;SDS011;8601;48.718;8.992;2023-03-20T13:42:53;4.27;;;1.43;;
16969;SDS011;8601;48.718;8.992;2023-03-20T13:45:28;3.53;;;1.33;;
16969;SDS011;8601;48.718;8.992;2023-03-20T13:48:01;1.67;;;1.50;;
16969;SDS011;8601;48.718;8.992;2023-03-20T13:50:50;2.60;;;1.30;;
16969;SDS011;8601;48.718;8.992;2023-03-20T13:53:27;2.50;;;1.47;;
16969;SDS011;8601;48.718;8.992;2023-03-20T13:55:58;1.80;;;1.70;;
16969;SDS011;8601;48.718;8.992;2023-03-20T13:58:39;1.70;;;1.60;;
16969;SDS011;8601;48.718;8.992;2023-03-20T14:01:16;2.67;;;1.73;;
16969;SDS011;8601;48.718;8.992;2023-03-20T14:03:50;1.93;;;1.50;;
16969;SDS011;8601;48.718;8.992;2023-03-20T14:12:03;1.50;;;1.40;;
16969;SDS011;8601;48.718;8.992;2023-03-20T14:14:33;1.50;;;1.40;;
16969;SDS011;8601;48.718;8.992;2023-03-20T14:17:08;2.77;;;1.40;;
16969;SDS011;8601;48.718;8.992;2023-03-20T14:19:42;1.60;;;1.10;;
16969;SDS011;8601;48.718;8.992;2023-03-20T14:22:13;2.20;;;1.40;;
16969;SDS011;8601;48.718;8.992;2023-03-20T14:24:44;2.03;;;1.40;;
16969;SDS011;8601;48.718;8.992;2023-03-20T14:27:17;2.30;;;1.30;;
16969;SDS011;8601;48.718;8.992;2023-03-20T14:29:45;2.03;;;1.30;;
16969;SDS011;8601;48.718;8.992;2023-03-20T14:32:23;1.10;;;1.00;;
16969;SDS011;8601;48.718;8.992;2023-03-20T14:35:00;2.53;;;1.10;;
16969;SDS011;8601;48.718;8.992;2023-03-20T14:40:42;1.43;;;1.33;;
16969;SDS011;8601;48.718;8.992;2023-03-20T14:43:20;1.30;;;1.20;;
16969;SDS011;8601;48.718;8.992;2023-03-20T14:46:01;1.40;;;1.30;;
16969;SDS011;8601;48.718;8.992;2023-03-20T14:48:34;1.40;;;1.30;;
16969;SDS011;8601;48.718;8.992;2023-03-20T14:51:13;1.67;;;1.33;;
16969;SDS011;8601;48.718;8.992;2023-03-20T14:53:49;1.97;;;1.87;;
16969;SDS011;8601;48.718;8.992;2023-03-20T14:56:24;1.30;;;1.20;;
16969;SDS011;8601;48.718;8.992;2023-03-20T14:58:58;2.00;;;1.40;;
16969;SDS011;8601;48.718;8.992;2023-03-20T15:01:40;1.57;;;1.47;;
16969;SDS011;8601;48.718;8.992;2023-03-20T15:04:17;1.57;;;1.47;;
16969;SDS011;8601;48.718;8.992;2023-03-20T15:06:52;1.43;;;1.33;;
16969;SDS011;8601;48.718;8.992;2023-03-20T15:09:22;1.67;;;1.57;;
16969;SDS011;8601;48.718;8.992;2023-03-20T15:11:52;1.60;;;1.50;;
16969;SDS011;8601;48.718;8.992;2023-03-20T15:14:23;1.30;;;1.20;;
16969;SDS011;8601;48.718;8.992;2023-03-20T15:16:55;2.13;;;1.23;;
16969;SDS011;8601;48.718;8.992;2023-03-20T15:19:23;1.40;;;1.30;;
16969;SDS011;8601;48.718;8.992;2023-03-20T15:21:51;2.00;;;1.30;;
16969;SDS011;8601;48.718;8.992;2023-03-20T15:24:20;1.70;;;1.60;;
16969;SDS011;8601;48.718;8.992;2023-03-20T15:26:50;1.50;;;1.40;;
16969;SDS011;8601;48.718;8.992;2023-03-20T15:29:19;2.70;;;1.63;;
16969;SDS011;8601;48.718;8.992;2023-03-20T15:31:49;1.80;;;1.50;;
16969;SDS011;8601;48.718;8.992;2023-03-20T15:34:20;1.60;;;1.50;;
16969;SDS011;8601;48.718;8.992;2023-03-20T15:36:48;1.80;;;1.60;;
16969;SDS011;8601;48.718;8.992;2023-03-20T15:39:19;2.80;;;1.70;;
16969;SDS011;8601;48.718;8.992;2023-03-20T15:41:50;1.77;;;1.67;;